Terminal Aerodrome Forecast
Issued by NWS New Orleans/Baton Rouge, LA

Current Version | Previous Version | Text Only | Print | Product List | Glossary On
Versions: 1 2 3 4 5 6 7 8 9 10 11 12 13 14 15 16 17 18 19 20 21 22 23 24 25 26 27 28 29 30 31
000
FTUS44 KLIX 261813 AAA
TAFNEW
TAF AMD
KNEW 261813Z 2618/2718 20011KT 6SM -RA SCT015 SCT050 BKN100
      TEMPO 2618/2620 3SM TSRA BR BKN020CB
     FM270200 22008KT P6SM VCSH BKN040
     FM271400 22014KT P6SM VCSH BKN040=

USA.gov is the U.S. government's official web portal to all federal, state and local government web resources and services.